createdAt,value
2023-02-21T00:00:28.142Z,66.30
2023-02-21T00:02:54.830Z,66.00
2023-02-21T00:05:22.991Z,66.00
2023-02-21T00:07:49.917Z,66.00
2023-02-21T00:10:17.541Z,66.10
2023-02-21T00:12:44.451Z,66.10
2023-02-21T00:15:11.674Z,65.70
2023-02-21T00:17:38.381Z,65.60
2023-02-21T00:20:05.563Z,65.70
2023-02-21T00:22:33.575Z,65.50
2023-02-21T00:25:00.586Z,65.50
2023-02-21T00:27:27.311Z,65.50
2023-02-21T00:29:54.052Z,65.50
2023-02-21T00:32:20.818Z,65.50
2023-02-21T00:34:47.609Z,65.60
2023-02-21T00:37:14.348Z,65.30
2023-02-21T00:39:42.453Z,65.30
2023-02-21T00:42:09.256Z,65.50
2023-02-21T00:44:35.996Z,65.50
2023-02-21T00:47:02.740Z,65.30
2023-02-21T00:49:29.477Z,65.40
2023-02-21T00:51:56.236Z,65.50
2023-02-21T00:54:22.969Z,65.40
2023-02-21T00:56:51.039Z,65.60
2023-02-21T00:59:17.716Z,65.70
2023-02-21T01:01:44.490Z,65.70
2023-02-21T01:04:11.265Z,65.60
2023-02-21T01:06:37.987Z,65.80
2023-02-21T01:09:04.739Z,65.60
2023-02-21T01:11:32.386Z,65.90
2023-02-21T01:14:00.818Z,65.60
2023-02-21T01:16:28.874Z,65.80
2023-02-21T01:18:55.618Z,66.00
2023-02-21T01:21:22.417Z,66.00
2023-02-21T01:23:49.173Z,66.10
2023-02-21T01:26:15.998Z,66.00
2023-02-21T01:28:42.676Z,66.30
2023-02-21T01:31:10.882Z,65.90
2023-02-21T01:33:39.334Z,65.90
2023-02-21T01:36:06.798Z,66.10
2023-02-21T01:38:33.870Z,66.00
2023-02-21T01:41:00.643Z,66.10
2023-02-21T01:43:28.869Z,65.80
2023-02-21T01:45:55.925Z,65.80
2023-02-21T01:48:25.268Z,65.70
2023-02-21T01:50:53.168Z,65.70
2023-02-21T01:53:23.944Z,65.60
2023-02-21T01:55:50.756Z,65.50
2023-02-21T01:58:17.997Z,65.70
2023-02-21T02:00:45.021Z,65.60
2023-02-21T02:03:15.119Z,65.70
2023-02-21T02:05:46.190Z,65.50
2023-02-21T02:08:13.580Z,65.60
2023-02-21T02:10:41.508Z,65.60
2023-02-21T02:13:29.547Z,65.60
2023-02-21T02:16:02.719Z,65.60
2023-02-21T02:18:44.990Z,65.60
2023-02-21T02:21:42.399Z,65.80
2023-02-21T02:24:32.827Z,65.70
2023-02-21T02:27:18.133Z,65.90
2023-02-21T02:30:01.658Z,66.10
2023-02-21T02:33:00.383Z,66.20
2023-02-21T02:35:31.115Z,66.20
2023-02-21T02:38:02.258Z,66.30
2023-02-21T02:40:35.136Z,66.40
2023-02-21T02:43:10.315Z,66.20
2023-02-21T02:45:42.613Z,66.20
2023-02-21T02:48:15.155Z,66.50
2023-02-21T02:50:47.193Z,66.50
2023-02-21T02:53:17.026Z,66.60
2023-02-21T02:55:48.616Z,66.70
2023-02-21T02:58:17.376Z,66.80
2023-02-21T03:00:49.740Z,66.80
2023-02-21T03:03:38.118Z,67.40
2023-02-21T03:06:19.543Z,66.70
2023-02-21T03:08:52.850Z,66.80
2023-02-21T03:11:22.500Z,66.80
2023-02-21T03:13:54.016Z,66.90
2023-02-21T03:16:26.495Z,66.50
2023-02-21T03:18:58.358Z,66.60
2023-02-21T03:21:30.679Z,66.60
2023-02-21T03:24:00.848Z,66.60
2023-02-21T03:26:30.344Z,66.70
2023-02-21T03:28:57.523Z,66.70
2023-02-21T03:31:29.989Z,66.70
2023-02-21T03:33:56.851Z,66.80
2023-02-21T03:36:25.749Z,67.00
2023-02-21T03:38:52.414Z,67.00
2023-02-21T03:41:19.125Z,67.10
2023-02-21T03:43:45.759Z,66.80
2023-02-21T03:46:12.442Z,67.00
2023-02-21T03:48:39.127Z,67.10
2023-02-21T03:51:06.084Z,67.00
2023-02-21T03:53:34.104Z,66.80
2023-02-21T03:56:00.770Z,66.80
2023-02-21T03:58:27.534Z,66.50
2023-02-21T04:00:54.244Z,66.60
2023-02-21T04:03:21.329Z,66.50
2023-02-21T04:05:48.001Z,66.70
2023-02-21T04:08:15.048Z,66.60
2023-02-21T04:10:51.597Z,66.60
2023-02-21T04:13:19.076Z,66.60
2023-02-21T04:15:45.750Z,66.70
2023-02-21T04:18:12.436Z,66.60
2023-02-21T04:20:39.144Z,66.50
2023-02-21T04:23:05.764Z,66.60
2023-02-21T04:25:32.439Z,66.60
2023-02-21T04:28:00.450Z,66.60
2023-02-21T04:30:27.184Z,66.30
2023-02-21T04:32:53.901Z,66.50
2023-02-21T04:35:20.758Z,66.60
2023-02-21T04:37:47.467Z,66.60
2023-02-21T04:40:14.661Z,66.60
2023-02-21T04:42:41.386Z,66.70
2023-02-21T04:45:09.733Z,67.10
2023-02-21T04:47:36.376Z,67.00
2023-02-21T04:50:03.133Z,66.90
2023-02-21T04:52:29.783Z,66.90
2023-02-21T04:54:56.467Z,66.90
2023-02-21T04:57:23.159Z,67.00
2023-02-21T04:59:55.679Z,67.10
2023-02-21T05:02:23.738Z,67.30
2023-02-21T05:04:50.470Z,67.60
2023-02-21T05:07:17.136Z,67.50
2023-02-21T05:09:43.806Z,67.50
2023-02-21T05:12:10.562Z,67.40
2023-02-21T05:14:37.231Z,67.40
2023-02-21T05:17:04.025Z,67.30
2023-02-21T05:19:32.314Z,67.30
2023-02-21T05:22:01.540Z,67.40
2023-02-21T05:24:30.336Z,67.00
2023-02-21T05:26:57.784Z,67.10
2023-02-21T05:29:24.823Z,67.00
2023-02-21T05:31:51.540Z,66.90
2023-02-21T05:34:18.298Z,67.00
2023-02-21T05:36:46.618Z,66.50
2023-02-21T05:39:13.500Z,66.80
2023-02-21T05:41:46.746Z,66.70
2023-02-21T05:44:13.472Z,66.80
2023-02-21T05:46:40.304Z,66.80
2023-02-21T05:49:07.264Z,66.90
2023-02-21T05:51:35.089Z,66.90
2023-02-21T05:54:03.472Z,66.70
2023-02-21T05:56:30.371Z,66.80
2023-02-21T05:58:57.074Z,67.00
2023-02-21T06:04:05.061Z,67.10
2023-02-21T06:06:32.271Z,67.10
2023-02-21T06:08:59.235Z,67.00
2023-02-21T06:11:30.783Z,67.00
2023-02-21T06:13:58.857Z,67.00
2023-02-21T06:16:26.963Z,67.00
2023-02-21T06:18:54.955Z,66.90
2023-02-21T06:21:21.847Z,67.00
2023-02-21T06:23:49.035Z,67.00
2023-02-21T06:26:17.238Z,66.90
2023-02-21T06:28:45.651Z,66.90
2023-02-21T06:31:12.841Z,66.90
2023-02-21T06:33:39.880Z,66.90
2023-02-21T06:36:08.635Z,66.70
2023-02-21T06:38:35.602Z,66.60
2023-02-21T06:41:06.273Z,66.80
2023-02-21T06:43:33.030Z,66.70
2023-02-21T06:46:01.223Z,66.80
2023-02-21T06:48:28.288Z,66.70
2023-02-21T06:50:55.018Z,66.70
2023-02-21T06:53:21.719Z,66.60
2023-02-21T06:55:48.418Z,66.70
2023-02-21T06:58:15.280Z,66.80
2023-02-21T07:00:41.963Z,66.80
2023-02-21T07:03:10.017Z,67.00
2023-02-21T07:05:36.882Z,66.90
2023-02-21T07:08:04.252Z,66.90
2023-02-21T07:10:31.227Z,66.90
2023-02-21T07:12:57.938Z,66.80
2023-02-21T07:15:24.702Z,66.80
2023-02-21T07:17:51.363Z,66.80
2023-02-21T07:20:19.838Z,66.80
2023-02-21T07:22:46.617Z,66.90
2023-02-21T07:25:14.845Z,66.90
2023-02-21T07:27:41.853Z,66.80
2023-02-21T07:30:09.594Z,66.80
2023-02-21T07:32:36.409Z,67.00
2023-02-21T07:35:03.297Z,66.90
2023-02-21T07:37:31.486Z,66.80
2023-02-21T07:39:58.266Z,66.80
2023-02-21T07:42:25.150Z,66.70
2023-02-21T07:44:55.716Z,66.80
2023-02-21T07:47:22.579Z,66.80
2023-02-21T07:49:49.336Z,66.80
2023-02-21T07:52:16.269Z,66.80
2023-02-21T07:54:45.204Z,66.80
2023-02-21T07:57:12.110Z,66.80
2023-02-21T07:59:38.840Z,66.90
2023-02-21T08:02:05.695Z,66.80
2023-02-21T08:04:32.471Z,66.90
2023-02-21T08:06:59.820Z,66.80
2023-02-21T08:09:26.608Z,66.80
2023-02-21T08:11:54.613Z,66.70
2023-02-21T08:14:21.318Z,66.70
2023-02-21T08:16:47.964Z,66.80
2023-02-21T08:19:14.632Z,66.60
2023-02-21T08:21:45.809Z,66.50
2023-02-21T08:24:12.834Z,66.40
2023-02-21T08:26:39.997Z,66.20
2023-02-21T08:29:08.647Z,66.20
2023-02-21T08:31:35.595Z,66.10
2023-02-21T08:34:02.450Z,66.10
2023-02-21T08:36:31.616Z,66.00
2023-02-21T08:38:58.331Z,65.90
2023-02-21T08:41:25.019Z,66.00
2023-02-21T08:43:51.905Z,65.80
2023-02-21T08:46:19.957Z,65.70
2023-02-21T08:48:46.696Z,66.50
2023-02-21T08:51:13.906Z,65.60
2023-02-21T08:53:40.769Z,65.70
2023-02-21T08:56:07.505Z,65.70
2023-02-21T08:58:35.669Z,65.60
2023-02-21T09:01:03.612Z,65.60
2023-02-21T09:03:31.743Z,65.60
2023-02-21T09:05:58.409Z,65.50
2023-02-21T09:08:25.080Z,65.50
2023-02-21T09:10:51.772Z,65.40
2023-02-21T09:13:18.536Z,65.50
2023-02-21T09:15:45.421Z,65.50
2023-02-21T09:18:12.120Z,65.50
2023-02-21T09:20:40.072Z,65.60
2023-02-21T09:23:06.747Z,65.40
2023-02-21T09:25:33.439Z,65.40
2023-02-21T09:28:00.149Z,65.50
2023-02-21T09:30:27.388Z,65.60
2023-02-21T09:32:54.962Z,65.80
2023-02-21T09:35:22.222Z,65.80
2023-02-21T09:37:50.265Z,66.00
2023-02-21T09:40:26.102Z,66.50
2023-02-21T09:42:54.605Z,66.30
2023-02-21T09:45:22.183Z,66.60
2023-02-21T09:47:52.845Z,66.50
2023-02-21T09:50:25.113Z,66.60
2023-02-21T09:52:55.900Z,66.70
2023-02-21T09:55:30.568Z,66.60
2023-02-21T09:57:57.975Z,66.50
2023-02-21T10:00:27.442Z,66.50
2023-02-21T10:03:03.554Z,66.30
2023-02-21T10:05:42.567Z,66.20
2023-02-21T10:08:19.299Z,66.20
2023-02-21T10:10:48.632Z,66.30
2023-02-21T10:13:30.804Z,66.10
2023-02-21T10:16:02.173Z,65.90
2023-02-21T10:18:36.709Z,65.70
2023-02-21T10:21:11.388Z,65.60
2023-02-21T10:23:43.260Z,65.60
2023-02-21T10:26:12.822Z,65.40
2023-02-21T10:28:40.057Z,65.40
2023-02-21T10:31:08.992Z,65.30
2023-02-21T10:33:38.659Z,65.20
2023-02-21T10:36:11.836Z,65.20
2023-02-21T10:38:42.867Z,65.20
2023-02-21T10:41:11.219Z,65.30
2023-02-21T10:43:43.741Z,65.30
2023-02-21T10:46:17.608Z,65.10
2023-02-21T10:48:46.782Z,64.80
2023-02-21T10:51:16.642Z,64.80
2023-02-21T10:53:47.253Z,64.80
2023-02-21T10:56:38.291Z,64.80
2023-02-21T10:59:06.826Z,64.60
2023-02-21T11:01:37.060Z,64.90
2023-02-21T11:04:06.920Z,64.80
2023-02-21T11:06:37.233Z,64.60
2023-02-21T11:09:29.326Z,64.60
2023-02-21T11:12:01.239Z,64.60
2023-02-21T11:14:28.350Z,64.30
2023-02-21T11:17:22.785Z,64.10
2023-02-21T11:19:55.037Z,63.90
2023-02-21T11:22:25.550Z,63.90
2023-02-21T11:25:04.572Z,63.70
2023-02-21T11:27:34.729Z,63.90
2023-02-21T11:30:04.526Z,64.00
2023-02-21T11:32:35.059Z,63.90
2023-02-21T11:35:05.828Z,64.00
2023-02-21T11:37:32.985Z,64.00
2023-02-21T11:40:01.019Z,63.80
2023-02-21T11:42:29.967Z,64.10
2023-02-21T11:45:15.410Z,64.30
2023-02-21T11:47:46.856Z,64.30
2023-02-21T11:50:23.427Z,64.70
2023-02-21T11:52:55.775Z,64.50
2023-02-21T11:55:26.580Z,64.70
2023-02-21T11:58:04.491Z,64.90
2023-02-21T12:00:40.276Z,65.10
2023-02-21T12:03:30.280Z,65.30
2023-02-21T12:06:01.678Z,65.30
2023-02-21T12:08:48.622Z,65.50
2023-02-21T12:11:47.010Z,65.00
2023-02-21T12:14:24.321Z,64.90
2023-02-21T12:17:01.045Z,65.10
2023-02-21T12:19:42.439Z,64.50
2023-02-21T12:22:18.761Z,65.30
2023-02-21T12:25:02.755Z,64.20
2023-02-21T12:27:38.603Z,64.30
2023-02-21T12:30:27.275Z,64.50
2023-02-21T12:33:04.428Z,64.30
2023-02-21T12:36:00.531Z,63.90
2023-02-21T12:38:37.260Z,63.80
2023-02-21T12:41:15.847Z,63.70
2023-02-21T12:43:53.116Z,63.10
2023-02-21T12:46:26.200Z,62.90
2023-02-21T12:48:59.560Z,63.20
2023-02-21T12:51:31.310Z,62.60
2023-02-21T12:54:04.199Z,62.80
2023-02-21T12:56:38.014Z,62.60
2023-02-21T12:59:13.202Z,62.50
2023-02-21T13:01:43.844Z,62.80
2023-02-21T13:04:20.372Z,62.10
2023-02-21T13:06:51.956Z,61.60
2023-02-21T13:09:25.584Z,62.30
2023-02-21T13:12:00.029Z,62.20
2023-02-21T13:14:33.742Z,61.40
2023-02-21T13:17:00.661Z,61.10
2023-02-21T13:19:41.817Z,60.90
2023-02-21T13:22:16.595Z,60.80
2023-02-21T13:24:59.573Z,60.70
2023-02-21T13:27:49.596Z,60.60
2023-02-21T13:30:23.609Z,60.00
2023-02-21T13:32:53.078Z,60.80
2023-02-21T13:35:24.584Z,60.30
2023-02-21T13:37:51.798Z,60.50
2023-02-21T13:40:22.427Z,60.60
2023-02-21T13:42:58.775Z,60.00
2023-02-21T13:45:27.326Z,60.10
2023-02-21T13:48:20.499Z,60.00
2023-02-21T13:50:48.990Z,59.30
2023-02-21T13:53:18.284Z,59.00
2023-02-21T13:56:14.111Z,58.40
2023-02-21T13:58:41.827Z,58.70
2023-02-21T14:01:22.401Z,59.10
2023-02-21T14:03:49.995Z,59.60
2023-02-21T14:06:27.484Z,58.90
2023-02-21T14:08:57.909Z,59.10
2023-02-21T14:11:26.994Z,59.10
2023-02-21T14:13:55.948Z,58.40
2023-02-21T14:16:29.929Z,58.90
2023-02-21T14:18:59.606Z,58.50
2023-02-21T14:21:30.057Z,58.70
2023-02-21T14:24:00.496Z,59.00
2023-02-21T14:26:41.633Z,58.90
2023-02-21T14:29:36.491Z,59.00
2023-02-21T14:32:28.075Z,58.80
2023-02-21T14:34:57.094Z,57.60
2023-02-21T14:37:30.306Z,58.00
2023-02-21T14:40:00.199Z,57.80
2023-02-21T14:42:37.748Z,57.90
2023-02-21T14:45:27.995Z,57.40
2023-02-21T14:48:19.741Z,57.00
2023-02-21T14:51:07.020Z,58.40
2023-02-21T14:53:52.593Z,58.30
2023-02-21T14:56:44.809Z,58.70
2023-02-21T14:59:42.429Z,58.60
2023-02-21T15:02:22.876Z,58.30
2023-02-21T15:04:58.739Z,58.40
2023-02-21T15:07:32.703Z,57.70
2023-02-21T15:10:07.660Z,58.10
2023-02-21T15:12:36.881Z,58.00
2023-02-21T15:15:04.027Z,58.20
2023-02-21T15:17:30.767Z,58.30
2023-02-21T15:20:13.617Z,58.80
2023-02-21T15:22:40.358Z,58.60
2023-02-21T15:25:19.262Z,57.90
2023-02-21T15:28:21.811Z,57.90
2023-02-21T15:31:02.064Z,58.00
2023-02-21T15:33:33.056Z,57.40
2023-02-21T15:36:04.008Z,57.60
2023-02-21T15:38:33.633Z,57.70
2023-02-21T15:41:05.430Z,58.00
2023-02-21T15:43:39.752Z,57.80
2023-02-21T15:46:09.654Z,58.20
2023-02-21T15:48:36.622Z,57.50
2023-02-21T15:51:08.012Z,57.60
2023-02-21T15:53:34.796Z,57.40
2023-02-21T15:56:21.676Z,57.40
2023-02-21T15:59:08.916Z,57.20
2023-02-21T16:01:35.661Z,57.40
2023-02-21T16:04:17.348Z,57.40
2023-02-21T16:06:52.207Z,57.60
2023-02-21T16:09:25.442Z,57.20
2023-02-21T16:11:55.178Z,57.40
2023-02-21T16:14:28.273Z,57.60
2023-02-21T16:17:06.406Z,57.80
2023-02-21T16:19:34.070Z,57.50
2023-02-21T16:22:12.971Z,57.40
2023-02-21T16:24:39.648Z,57.00
2023-02-21T16:27:10.596Z,57.30
2023-02-21T16:29:37.250Z,57.60
2023-02-21T16:32:04.233Z,57.70
2023-02-21T16:34:32.853Z,57.30
2023-02-21T16:37:04.589Z,57.70
2023-02-21T16:39:32.547Z,58.00
2023-02-21T16:41:59.282Z,58.10
2023-02-21T16:44:26.215Z,58.10
2023-02-21T16:46:53.778Z,58.40
2023-02-21T16:49:20.619Z,58.50
2023-02-21T16:51:47.567Z,58.10
2023-02-21T16:54:14.353Z,58.00
2023-02-21T16:56:46.184Z,58.30
2023-02-21T16:59:16.078Z,58.30
2023-02-21T17:01:43.139Z,58.30
2023-02-21T17:04:15.113Z,58.70
2023-02-21T17:06:42.311Z,58.50
2023-02-21T17:09:18.016Z,58.40
2023-02-21T17:11:46.027Z,58.20
2023-02-21T17:14:12.662Z,58.20
2023-02-21T17:16:39.349Z,58.50
2023-02-21T17:19:06.155Z,58.30
2023-02-21T17:21:32.818Z,58.50
2023-02-21T17:23:59.493Z,58.70
2023-02-21T17:26:26.128Z,58.50
2023-02-21T17:28:54.116Z,58.50
2023-02-21T17:31:21.389Z,58.70
2023-02-21T17:33:48.155Z,58.90
2023-02-21T17:36:17.073Z,58.90
2023-02-21T17:38:43.737Z,58.80
2023-02-21T17:41:10.384Z,58.80
2023-02-21T17:43:37.131Z,58.90
2023-02-21T17:46:05.327Z,58.70
2023-02-21T17:48:31.971Z,58.90
2023-02-21T17:50:58.601Z,58.90
2023-02-21T17:53:25.260Z,59.00
2023-02-21T17:55:51.946Z,58.90
2023-02-21T17:58:18.607Z,58.90
2023-02-21T18:00:46.966Z,58.80
2023-02-21T18:03:14.955Z,58.80
2023-02-21T18:05:42.992Z,58.90
2023-02-21T18:08:09.653Z,59.00
2023-02-21T18:10:36.317Z,59.00
2023-02-21T18:13:03.033Z,59.00
2023-02-21T18:15:29.744Z,59.00
2023-02-21T18:17:56.601Z,59.00
2023-02-21T18:20:24.799Z,59.00
2023-02-21T18:22:51.491Z,58.90
2023-02-21T18:25:18.642Z,58.90
2023-02-21T18:27:45.374Z,58.80
2023-02-21T18:30:12.596Z,58.90
2023-02-21T18:32:39.312Z,59.00
2023-02-21T18:35:06.667Z,59.00
2023-02-21T18:37:34.688Z,59.00
2023-02-21T18:40:01.934Z,59.10
2023-02-21T18:42:28.563Z,59.10
2023-02-21T18:44:56.474Z,59.10
2023-02-21T18:47:25.113Z,59.20
2023-02-21T18:49:51.820Z,59.10
2023-02-21T18:52:18.482Z,59.40
2023-02-21T18:54:47.940Z,59.20
2023-02-21T18:57:15.190Z,59.90
2023-02-21T18:59:42.677Z,59.30
2023-02-21T19:02:12.170Z,59.50
2023-02-21T19:04:38.830Z,59.20
2023-02-21T19:07:07.069Z,59.40
2023-02-21T19:09:33.795Z,59.40
2023-02-21T19:12:02.459Z,59.50
2023-02-21T19:14:29.259Z,59.40
2023-02-21T19:16:56.102Z,59.50
2023-02-21T19:19:22.895Z,59.70
2023-02-21T19:21:49.549Z,59.60
2023-02-21T19:24:16.345Z,59.70
2023-02-21T19:26:43.149Z,59.70
2023-02-21T19:29:11.352Z,59.80
2023-02-21T19:31:38.106Z,59.80
2023-02-21T19:34:04.904Z,59.90
2023-02-21T19:36:31.656Z,60.00
2023-02-21T19:38:58.382Z,59.80
2023-02-21T19:41:26.037Z,59.80
2023-02-21T19:43:52.663Z,59.80
2023-02-21T19:46:22.168Z,59.80
2023-02-21T19:48:48.876Z,59.80
2023-02-21T19:51:16.505Z,59.90
2023-02-21T19:53:43.407Z,60.10
2023-02-21T19:56:10.407Z,60.00
2023-02-21T19:58:37.053Z,60.10
2023-02-21T20:01:03.967Z,60.10
2023-02-21T20:03:32.186Z,60.00
2023-02-21T20:05:59.632Z,60.00
2023-02-21T20:08:26.316Z,60.00
2023-02-21T20:10:52.966Z,60.00
2023-02-21T20:13:19.616Z,60.10
2023-02-21T20:15:46.254Z,60.00
2023-02-21T20:18:12.981Z,60.10
2023-02-21T20:20:40.999Z,60.10
2023-02-21T20:23:09.986Z,60.10
2023-02-21T20:25:36.990Z,60.10
2023-02-21T20:28:03.897Z,60.00
2023-02-21T20:30:30.645Z,60.00
2023-02-21T20:32:57.395Z,60.00
2023-02-21T20:35:24.142Z,60.10
2023-02-21T20:37:52.166Z,60.20
2023-02-21T20:40:19.114Z,60.10
2023-02-21T20:42:45.814Z,60.20
2023-02-21T20:45:12.514Z,60.20
2023-02-21T20:47:39.608Z,60.20
2023-02-21T20:50:07.348Z,60.10
2023-02-21T20:52:34.243Z,60.20
2023-02-21T20:55:02.374Z,60.20
2023-02-21T20:57:29.011Z,60.30
2023-02-21T20:59:55.714Z,60.30
2023-02-21T21:02:22.399Z,60.30
2023-02-21T21:04:49.073Z,60.30
2023-02-21T21:07:18.330Z,60.30
2023-02-21T21:09:45.412Z,60.30
2023-02-21T21:12:16.032Z,60.30
2023-02-21T21:14:44.529Z,60.20
2023-02-21T21:17:12.844Z,60.30
2023-02-21T21:19:41.207Z,60.30
2023-02-21T21:22:10.634Z,60.30
2023-02-21T21:24:38.260Z,60.30
2023-02-21T21:27:08.990Z,60.40
2023-02-21T21:29:38.543Z,60.40
2023-02-21T21:32:06.283Z,61.20
2023-02-21T21:34:33.023Z,60.40
2023-02-21T21:37:01.367Z,60.30
2023-02-21T21:39:28.302Z,60.30
2023-02-21T21:41:57.081Z,60.40
2023-02-21T21:44:24.472Z,60.30
2023-02-21T21:46:53.800Z,60.40
2023-02-21T21:49:23.068Z,60.40
2023-02-21T21:51:50.124Z,60.40
2023-02-21T21:54:19.111Z,60.50
2023-02-21T21:56:46.372Z,60.50
2023-02-21T21:59:16.014Z,60.30
2023-02-21T22:01:42.686Z,60.40
2023-02-21T22:04:10.748Z,60.40
2023-02-21T22:06:37.557Z,60.40
2023-02-21T22:09:04.848Z,60.40
2023-02-21T22:11:31.497Z,60.40
2023-02-21T22:13:58.424Z,60.40
2023-02-21T22:16:25.098Z,60.50
2023-02-21T22:18:52.292Z,60.50
2023-02-21T22:21:20.315Z,60.40
2023-02-21T22:23:46.956Z,60.60
2023-02-21T22:26:17.223Z,60.50
2023-02-21T22:28:43.896Z,60.60
2023-02-21T22:31:11.120Z,60.50
2023-02-21T22:33:37.947Z,60.60
2023-02-21T22:36:05.782Z,60.50
2023-02-21T22:38:33.772Z,60.50
2023-02-21T22:41:00.409Z,60.50
2023-02-21T22:43:27.117Z,60.50
2023-02-21T22:45:53.880Z,60.50
2023-02-21T22:48:21.113Z,60.50
2023-02-21T22:50:48.707Z,60.50
2023-02-21T22:53:16.755Z,60.50
2023-02-21T22:55:45.581Z,60.50
2023-02-21T22:58:12.258Z,60.40
2023-02-21T23:00:38.913Z,60.50
2023-02-21T23:03:08.362Z,60.40
2023-02-21T23:05:35.052Z,60.60
2023-02-21T23:08:01.678Z,60.50
2023-02-21T23:10:28.725Z,60.40
2023-02-21T23:12:58.635Z,60.40
2023-02-21T23:15:26.131Z,60.40
2023-02-21T23:17:54.080Z,60.50
2023-02-21T23:20:22.382Z,60.40
2023-02-21T23:22:50.985Z,60.40
2023-02-21T23:25:20.161Z,60.40
2023-02-21T23:27:48.316Z,60.40
2023-02-21T23:30:18.023Z,60.30
2023-02-21T23:32:45.932Z,60.30
2023-02-21T23:35:13.821Z,60.40
2023-02-21T23:37:40.459Z,60.40
2023-02-21T23:40:08.141Z,60.30
2023-02-21T23:42:34.749Z,60.30
2023-02-21T23:45:01.402Z,60.30
2023-02-21T23:47:29.375Z,60.30
2023-02-21T23:49:56.027Z,60.30
2023-02-21T23:52:22.677Z,60.20
2023-02-21T23:54:49.324Z,60.20
2023-02-21T23:57:15.978Z,60.20
2023-02-21T23:59:42.598Z,60.10
